Time;durP1;ratioP1;P1;durP2;ratioP2;P2;SDS_P1;SDS_P2;PMS_P1;PMS_P2;Temp;Humidity;BMP_temperature;BMP_pressure;BME280_temperature;BME280_humidity;BME280_pressure;Samples;Min_cycle;Max_cycle;Signal;HPM_P1;HPM_P2
2022/10/31 00:00:19;;;;;;;9.87;7.70;;;;;;;;;;5067839;28;20397;-79
2022/10/31 00:02:45;;;;;;;10.90;8.20;;;;;;;;;;5064055;28;20422;-77
2022/10/31 00:05:11;;;;;;;17.40;9.13;;;;;;;;;;5061944;28;20426;-79
2022/10/31 00:07:37;;;;;;;9.00;8.00;;;;;;;;;;5074783;28;20700;-80
2022/10/31 00:10:03;;;;;;;9.37;7.73;;;;;;;;;;5067733;28;20512;-80
2022/10/31 00:12:29;;;;;;;8.33;7.50;;;;;;;;;;5065111;28;20688;-79
2022/10/31 00:14:55;;;;;;;7.33;6.77;;;;;;;;;;5066593;28;20463;-79
2022/10/31 00:17:21;;;;;;;9.20;7.57;;;;;;;;;;5065301;28;20714;-80
2022/10/31 00:19:47;;;;;;;10.07;8.60;;;;;;;;;;5066856;28;20409;-80
2022/10/31 00:22:13;;;;;;;9.23;8.47;;;;;;;;;;5067304;28;20458;-79
2022/10/31 00:24:39;;;;;;;8.40;7.60;;;;;;;;;;5084599;28;20435;-80
2022/10/31 00:27:05;;;;;;;9.67;8.23;;;;;;;;;;5067268;28;20918;-78
2022/10/31 00:29:31;;;;;;;13.97;8.83;;;;;;;;;;5063937;28;20444;-79
2022/10/31 00:31:57;;;;;;;9.37;8.43;;;;;;;;;;5066527;28;20461;-79
2022/10/31 00:34:23;;;;;;;9.40;8.30;;;;;;;;;;5082370;28;20435;-79
2022/10/31 00:36:49;;;;;;;16.53;8.60;;;;;;;;;;5067015;28;20665;-79
2022/10/31 00:39:15;;;;;;;18.33;8.53;;;;;;;;;;5046128;28;20428;-79
2022/10/31 00:41:41;;;;;;;9.93;8.70;;;;;;;;;;5065888;28;20851;-79
2022/10/31 00:44:08;;;;;;;8.60;7.80;;;;;;;;;;5065038;28;20429;-79
2022/10/31 00:46:34;;;;;;;10.97;8.90;;;;;;;;;;5066211;28;20432;-81
2022/10/31 00:49:00;;;;;;;10.20;8.43;;;;;;;;;;5065208;28;20491;-79
2022/10/31 00:51:26;;;;;;;8.97;8.10;;;;;;;;;;5066107;28;20452;-79
2022/10/31 00:53:52;;;;;;;8.57;7.77;;;;;;;;;;5064869;28;20763;-78
2022/10/31 00:56:18;;;;;;;8.40;7.60;;;;;;;;;;5048182;28;20468;-79
2022/10/31 00:58:44;;;;;;;7.10;6.70;;;;;;;;;;5065029;28;20445;-79
2022/10/31 01:01:10;;;;;;;9.97;8.03;;;;;;;;;;5066398;28;20578;-79
2022/10/31 01:03:38;;;;;;;9.93;8.87;;;;;;;;;;5064456;28;20512;-79
2022/10/31 01:06:09;;;;;;;9.20;8.30;;;;;;;;;;5066601;28;21018;-80
2022/10/31 01:08:36;;;;;;;8.03;7.50;;;;;;;;;;5044788;28;20527;-80
2022/10/31 01:11:13;;;;;;;7.60;7.00;;;;;;;;;;5065746;28;20535;-79
2022/10/31 01:13:39;;;;;;;10.30;9.20;;;;;;;;;;5064233;28;20740;-79
2022/10/31 01:16:06;;;;;;;14.37;8.70;;;;;;;;;;5048334;28;20459;-79
2022/10/31 01:18:32;;;;;;;11.10;8.80;;;;;;;;;;5064158;28;20468;-80
2022/10/31 01:21:08;;;;;;;12.13;9.03;;;;;;;;;;5066422;28;20493;-79
2022/10/31 01:23:35;;;;;;;7.97;7.10;;;;;;;;;;5054397;28;20474;-80
2022/10/31 01:26:02;;;;;;;9.17;8.20;;;;;;;;;;5066196;28;20435;-78
2022/10/31 01:28:28;;;;;;;11.37;7.30;;;;;;;;;;5053850;28;20417;-80
2022/10/31 01:30:54;;;;;;;8.30;7.60;;;;;;;;;;5045939;28;20513;-79
2022/10/31 01:33:20;;;;;;;8.30;7.53;;;;;;;;;;5063422;28;20482;-79
2022/10/31 01:35:46;;;;;;;8.43;7.60;;;;;;;;;;5046115;28;20437;-79
2022/10/31 01:38:12;;;;;;;9.27;8.40;;;;;;;;;;5063582;28;20433;-79
2022/10/31 01:40:38;;;;;;;9.83;8.50;;;;;;;;;;5068044;28;20832;-79
2022/10/31 01:43:04;;;;;;;9.27;8.27;;;;;;;;;;5055508;28;20420;-79
2022/10/31 01:45:30;;;;;;;10.00;8.63;;;;;;;;;;5070949;28;20953;-80
2022/10/31 01:47:56;;;;;;;9.47;8.10;;;;;;;;;;5055709;28;20467;-80
2022/10/31 01:50:28;;;;;;;13.60;7.87;;;;;;;;;;5086169;28;20979;-79
2022/10/31 01:52:55;;;;;;;14.80;9.10;;;;;;;;;;5041065;28;20466;-78
2022/10/31 01:55:23;;;;;;;13.37;8.30;;;;;;;;;;5069917;28;20405;-79
2022/10/31 01:57:52;;;;;;;9.60;8.90;;;;;;;;;;5068226;28;20519;-80
2022/10/31 02:00:19;;;;;;;8.50;7.47;;;;;;;;;;5069826;28;20419;-79
2022/10/31 02:02:46;;;;;;;8.83;7.50;;;;;;;;;;5051935;28;20424;-80
2022/10/31 02:05:17;;;;;;;12.70;8.47;;;;;;;;;;5069900;28;20412;-80
2022/10/31 02:07:55;;;;;;;11.40;7.20;;;;;;;;;;5051633;28;20467;-80
2022/10/31 02:10:22;;;;;;;8.00;7.40;;;;;;;;;;5069558;28;20947;-79
2022/10/31 02:12:49;;;;;;;9.27;8.47;;;;;;;;;;5051781;28;20476;-81
2022/10/31 02:15:15;;;;;;;9.40;8.60;;;;;;;;;;5037836;28;20508;-79
2022/10/31 02:17:41;;;;;;;12.63;7.50;;;;;;;;;;5067261;28;20926;-79
2022/10/31 02:20:15;;;;;;;16.57;10.53;;;;;;;;;;5069286;28;20401;-80
2022/10/31 02:22:57;;;;;;;10.70;8.20;;;;;;;;;;5048542;28;20417;-79
2022/10/31 02:25:26;;;;;;;12.87;8.70;;;;;;;;;;5068710;28;20531;-79
2022/10/31 02:28:10;;;;;;;13.50;9.00;;;;;;;;;;5052211;28;20416;-80
2022/10/31 02:30:41;;;;;;;12.90;9.40;;;;;;;;;;5069021;28;20397;-79
2022/10/31 02:33:16;;;;;;;10.30;7.80;;;;;;;;;;5049417;28;20432;-79
2022/10/31 02:35:50;;;;;;;9.83;8.30;;;;;;;;;;5069522;28;20970;-79
2022/10/31 02:38:24;;;;;;;11.37;8.60;;;;;;;;;;5055850;28;20467;-79
2022/10/31 02:40:50;;;;;;;11.00;8.17;;;;;;;;;;5049332;28;20895;-79
2022/10/31 02:43:16;;;;;;;8.73;7.83;;;;;;;;;;5067866;28;20431;-79
2022/10/31 02:45:46;;;;;;;11.27;8.13;;;;;;;;;;5049431;28;20421;-79
2022/10/31 02:48:15;;;;;;;8.07;7.33;;;;;;;;;;5067413;28;20782;-79
2022/10/31 02:50:43;;;;;;;9.50;7.90;;;;;;;;;;5068371;28;20416;-78
2022/10/31 02:53:09;;;;;;;10.40;8.30;;;;;;;;;;5053955;28;20470;-79
2022/10/31 02:55:35;;;;;;;10.23;8.47;;;;;;;;;;5068757;28;20405;-79
2022/10/31 02:58:04;;;;;;;15.37;8.47;;;;;;;;;;5067426;28;20582;-79
2022/10/31 03:00:34;;;;;;;9.50;8.43;;;;;;;;;;5069123;28;20401;-79
2022/10/31 03:03:05;;;;;;;9.97;8.13;;;;;;;;;;5067461;28;20420;-79
2022/10/31 03:05:31;;;;;;;9.47;7.77;;;;;;;;;;5068764;28;20407;-79
2022/10/31 03:08:00;;;;;;;8.40;7.77;;;;;;;;;;5067513;28;20807;-79
2022/10/31 03:10:26;;;;;;;9.93;8.93;;;;;;;;;;5069114;28;20485;-79
2022/10/31 03:12:55;;;;;;;12.33;8.80;;;;;;;;;;5066972;28;20464;-79
2022/10/31 03:15:36;;;;;;;13.97;9.03;;;;;;;;;;5068695;28;20506;-79
2022/10/31 03:18:08;;;;;;;10.07;9.13;;;;;;;;;;5052693;28;20440;-80
2022/10/31 03:20:37;;;;;;;10.27;9.20;;;;;;;;;;5068666;28;20492;-80
2022/10/31 03:23:05;;;;;;;10.70;8.90;;;;;;;;;;5067283;28;20432;-78
2022/10/31 03:25:32;;;;;;;11.23;8.43;;;;;;;;;;5068630;28;20397;-79
2022/10/31 03:27:59;;;;;;;14.50;8.60;;;;;;;;;;5066721;28;20440;-79
2022/10/31 03:30:25;;;;;;;9.70;8.80;;;;;;;;;;5068317;28;20495;-79
2022/10/31 03:32:53;;;;;;;10.73;9.63;;;;;;;;;;5066639;28;20802;-80
2022/10/31 03:35:20;;;;;;;10.93;8.57;;;;;;;;;;5067871;28;20441;-78
2022/10/31 03:37:47;;;;;;;8.70;7.57;;;;;;;;;;5066306;28;20428;-78
2022/10/31 03:40:14;;;;;;;11.80;10.70;;;;;;;;;;5076940;28;20492;-79
2022/10/31 03:42:41;;;;;;;9.83;9.03;;;;;;;;;;5064512;28;20995;-80
2022/10/31 03:45:13;;;;;;;8.90;7.63;;;;;;;;;;5069266;28;20428;-81
2022/10/31 03:47:39;;;;;;;12.47;9.20;;;;;;;;;;5049451;28;20494;-79
2022/10/31 03:50:06;;;;;;;11.73;8.20;;;;;;;;;;5068779;28;20443;-79
2022/10/31 03:52:35;;;;;;;8.57;7.87;;;;;;;;;;5049665;28;20820;-78
2022/10/31 03:55:10;;;;;;;13.33;7.83;;;;;;;;;;5070780;28;20397;-78
2022/10/31 03:57:39;;;;;;;11.33;8.53;;;;;;;;;;5048510;28;20478;-79
2022/10/31 04:00:10;;;;;;;10.03;9.00;;;;;;;;;;5067519;28;20409;-79
2022/10/31 04:02:39;;;;;;;10.90;9.50;;;;;;;;;;5065204;28;20838;-80
2022/10/31 04:05:06;;;;;;;10.40;8.33;;;;;;;;;;5049374;28;20476;-79
2022/10/31 04:07:35;;;;;;;9.10;8.30;;;;;;;;;;5047906;28;20430;-81
2022/10/31 04:10:03;;;;;;;15.93;9.33;;;;;;;;;;5067404;28;20452;-79
2022/10/31 04:12:30;;;;;;;16.03;10.80;;;;;;;;;;5047248;28;20457;-79
2022/10/31 04:14:56;;;;;;;33.67;10.33;;;;;;;;;;5055602;28;20833;-80
2022/10/31 04:17:24;;;;;;;14.07;10.00;;;;;;;;;;5064392;28;20460;-79
2022/10/31 04:19:50;;;;;;;11.30;9.90;;;;;;;;;;5048897;28;20979;-80
2022/10/31 04:22:16;;;;;;;11.37;9.80;;;;;;;;;;5047440;28;20524;-80
2022/10/31 04:24:41;;;;;;;22.90;10.63;;;;;;;;;;5065046;28;20938;-80
2022/10/31 04:27:07;;;;;;;15.70;10.57;;;;;;;;;;5066711;28;20753;-79
2022/10/31 04:29:33;;;;;;;13.60;9.60;;;;;;;;;;5064928;28;20470;-80
2022/10/31 04:31:59;;;;;;;14.37;10.00;;;;;;;;;;5066735;28;20605;-80
2022/10/31 04:34:25;;;;;;;13.07;10.33;;;;;;;;;;5065048;28;20468;-80
2022/10/31 04:36:51;;;;;;;12.73;10.83;;;;;;;;;;5066799;28;20926;-80
2022/10/31 04:39:17;;;;;;;18.07;10.33;;;;;;;;;;5062894;28;20490;-80
2022/10/31 04:41:43;;;;;;;14.20;10.00;;;;;;;;;;5047252;28;20432;-80
2022/10/31 04:44:09;;;;;;;11.53;10.33;;;;;;;;;;5049499;28;20728;-79
2022/10/31 04:46:35;;;;;;;11.60;8.70;;;;;;;;;;5065960;28;20431;-80
2022/10/31 04:49:01;;;;;;;14.70;9.73;;;;;;;;;;5065475;28;20923;-80
2022/10/31 04:51:30;;;;;;;17.40;11.30;;;;;;;;;;5066547;28;20475;-79
2022/10/31 04:53:56;;;;;;;11.10;8.87;;;;;;;;;;5065018;28;20800;-81
2022/10/31 04:56:22;;;;;;;13.97;10.10;;;;;;;;;;5066526;28;21017;-79
2022/10/31 04:58:51;;;;;;;11.70;8.57;;;;;;;;;;5064368;28;20555;-79
2022/10/31 05:01:17;;;;;;;13.27;11.00;;;;;;;;;;5066627;28;20465;-78
2022/10/31 05:03:46;;;;;;;14.00;11.20;;;;;;;;;;5057877;28;20432;-80
2022/10/31 05:06:12;;;;;;;11.67;10.40;;;;;;;;;;5066900;28;20429;-79
2022/10/31 05:08:38;;;;;;;13.60;10.37;;;;;;;;;;5064846;28;20447;-80
2022/10/31 05:11:04;;;;;;;13.30;9.80;;;;;;;;;;5066213;28;20440;-79
2022/10/31 05:13:31;;;;;;;11.47;10.27;;;;;;;;;;5064886;28;20464;-79
2022/10/31 05:15:57;;;;;;;17.33;10.83;;;;;;;;;;5065759;28;20470;-80
2022/10/31 05:18:23;;;;;;;11.77;10.47;;;;;;;;;;5056588;28;20483;-80
2022/10/31 05:20:49;;;;;;;14.83;10.70;;;;;;;;;;5051570;28;20519;-80
2022/10/31 05:23:15;;;;;;;12.60;10.60;;;;;;;;;;5063244;28;20499;-80
2022/10/31 05:25:41;;;;;;;13.07;10.97;;;;;;;;;;5045970;28;20453;-80
2022/10/31 05:28:07;;;;;;;11.77;10.63;;;;;;;;;;5065246;28;20455;-80
2022/10/31 05:30:34;;;;;;;13.47;9.90;;;;;;;;;;5046285;28;20504;-80
2022/10/31 05:33:01;;;;;;;13.97;9.33;;;;;;;;;;5066390;28;20468;-80
2022/10/31 05:35:31;;;;;;;11.77;10.57;;;;;;;;;;5077111;28;20797;-79
2022/10/31 05:37:58;;;;;;;10.70;9.60;;;;;;;;;;5045908;28;21024;-80
2022/10/31 05:40:24;;;;;;;15.30;11.53;;;;;;;;;;5063515;28;20438;-80
2022/10/31 05:42:54;;;;;;;11.60;10.37;;;;;;;;;;5065998;28;20416;-81
2022/10/31 05:45:20;;;;;;;14.17;10.17;;;;;;;;;;5076685;28;20432;-80
2022/10/31 05:47:53;;;;;;;11.13;9.90;;;;;;;;;;5066796;28;20641;-81
2022/10/31 05:50:19;;;;;;;13.23;10.70;;;;;;;;;;5075168;28;20798;-80
2022/10/31 05:52:46;;;;;;;14.60;11.13;;;;;;;;;;5048163;28;20890;-80
2022/10/31 05:55:12;;;;;;;15.00;10.60;;;;;;;;;;5060344;28;20464;-81
2022/10/31 05:57:38;;;;;;;17.37;9.77;;;;;;;;;;5080078;28;20649;-79
2022/10/31 06:00:05;;;;;;;10.07;9.07;;;;;;;;;;5071026;28;20934;-80
2022/10/31 06:02:34;;;;;;;10.40;9.10;;;;;;;;;;5045968;28;20523;-80
2022/10/31 06:05:00;;;;;;;14.60;9.77;;;;;;;;;;5063692;28;20579;-80
2022/10/31 06:07:27;;;;;;;16.90;9.10;;;;;;;;;;5065567;28;20442;-80
2022/10/31 06:09:53;;;;;;;15.90;11.33;;;;;;;;;;5067089;28;20440;-80
2022/10/31 06:12:19;;;;;;;18.70;11.20;;;;;;;;;;5066003;28;20733;-80
2022/10/31 06:14:45;;;;;;;11.63;10.43;;;;;;;;;;5037231;28;20468;-80
2022/10/31 06:17:10;;;;;;;15.03;12.30;;;;;;;;;;5045842;28;20440;-79
2022/10/31 06:19:36;;;;;;;14.97;11.30;;;;;;;;;;5062680;28;20542;-81
2022/10/31 06:22:02;;;;;;;12.43;11.10;;;;;;;;;;5065239;28;20431;-81
2022/10/31 06:24:28;;;;;;;23.10;12.63;;;;;;;;;;5052297;28;20502;-80
2022/10/31 06:26:54;;;;;;;21.77;12.20;;;;;;;;;;5048033;28;20852;-81
2022/10/31 06:29:20;;;;;;;18.53;11.77;;;;;;;;;;5059731;28;20443;-81
2022/10/31 06:31:47;;;;;;;22.30;12.30;;;;;;;;;;5049112;28;20504;-81
2022/10/31 06:34:12;;;;;;;14.25;11.68;;;;;;;;;;4367141;28;10000835;-81
2022/10/31 06:36:39;;;;;;;18.80;12.27;;;;;;;;;;5074478;28;20190;-81
2022/10/31 06:39:05;;;;;;;13.63;12.27;;;;;;;;;;5070129;28;20436;-79
2022/10/31 06:41:31;;;;;;;14.80;11.73;;;;;;;;;;5075506;28;20432;-79
2022/10/31 06:43:57;;;;;;;14.27;11.90;;;;;;;;;;5072647;28;20440;-80
2022/10/31 06:46:22;;;;;;;14.60;11.87;;;;;;;;;;5071128;28;20441;-82
2022/10/31 06:48:49;;;;;;;16.40;12.17;;;;;;;;;;5077709;28;20776;-80
2022/10/31 06:51:14;;;;;;;17.87;11.73;;;;;;;;;;5070233;28;20467;-82
2022/10/31 06:53:40;;;;;;;15.33;11.80;;;;;;;;;;5074665;28;20879;-81
2022/10/31 06:56:07;;;;;;;14.07;11.83;;;;;;;;;;5076237;28;20433;-80
2022/10/31 06:58:33;;;;;;;12.07;10.73;;;;;;;;;;5065918;28;20451;-81
2022/10/31 07:01:00;;;;;;;17.70;11.13;;;;;;;;;;5073304;28;20428;-79
2022/10/31 07:03:26;;;;;;;12.20;10.20;;;;;;;;;;5045710;28;20478;-79
2022/10/31 07:05:52;;;;;;;10.73;8.90;;;;;;;;;;5070493;28;20680;-79
2022/10/31 07:08:18;;;;;;;18.37;11.07;;;;;;;;;;5071559;28;20830;-80
2022/10/31 07:10:50;;;;;;;12.40;10.30;;;;;;;;;;5054192;28;20460;-81
2022/10/31 07:13:16;;;;;;;13.60;11.00;;;;;;;;;;5059286;28;20536;-80
2022/10/31 07:15:43;;;;;;;15.33;10.93;;;;;;;;;;5074052;28;20875;-81
2022/10/31 07:18:10;;;;;;;19.73;10.67;;;;;;;;;;5068215;28;20518;-79
2022/10/31 07:20:36;;;;;;;14.95;11.75;;;;;;;;;;5071493;28;20667;-80
2022/10/31 07:23:02;;;;;;;14.23;11.03;;;;;;;;;;5063010;28;20276;-80
2022/10/31 07:25:28;;;;;;;13.13;10.20;;;;;;;;;;5058621;28;20420;-80
2022/10/31 07:27:54;;;;;;;15.90;12.10;;;;;;;;;;5063590;28;20770;-79
2022/10/31 07:30:20;;;;;;;14.80;9.67;;;;;;;;;;5056645;28;20432;-80
2022/10/31 07:32:47;;;;;;;13.30;9.90;;;;;;;;;;5061036;28;20953;-79
2022/10/31 07:35:14;;;;;;;13.50;10.30;;;;;;;;;;5057077;28;20523;-79
2022/10/31 07:37:40;;;;;;;12.47;9.10;;;;;;;;;;5067179;28;20513;-80
2022/10/31 07:40:07;;;;;;;10.70;9.50;;;;;;;;;;5071022;28;20449;-80
2022/10/31 07:42:40;;;;;;;12.60;9.90;;;;;;;;;;5066753;28;20433;-79
2022/10/31 07:45:08;;;;;;;12.17;10.97;;;;;;;;;;5048504;28;20425;-81
2022/10/31 07:47:43;;;;;;;12.90;10.67;;;;;;;;;;5058593;28;20456;-80
2022/10/31 07:50:11;;;;;;;13.30;10.50;;;;;;;;;;5082247;28;20435;-79
2022/10/31 07:52:37;;;;;;;13.53;11.17;;;;;;;;;;5067579;28;20690;-80
2022/10/31 07:55:04;;;;;;;16.07;11.87;;;;;;;;;;5063441;28;20448;-81
2022/10/31 07:57:29;;;;;;;19.17;11.90;;;;;;;;;;5067343;28;20416;-79
2022/10/31 07:59:55;;;;;;;13.87;10.70;;;;;;;;;;5066188;28;20937;-80
2022/10/31 08:02:21;;;;;;;13.60;9.83;;;;;;;;;;5068273;28;20416;-79
2022/10/31 08:04:48;;;;;;;13.27;9.77;;;;;;;;;;5080399;28;20424;-80
2022/10/31 08:07:14;;;;;;;11.53;10.20;;;;;;;;;;5068036;28;20528;-80
2022/10/31 08:09:40;;;;;;;12.97;9.93;;;;;;;;;;5041075;28;20836;-79
2022/10/31 08:12:05;;;;;;;13.70;10.50;;;;;;;;;;5066902;28;20460;-79
2022/10/31 08:14:31;;;;;;;15.03;9.47;;;;;;;;;;5055613;28;21648;-79
2022/10/31 08:16:57;;;;;;;12.20;9.80;;;;;;;;;;5046643;28;20433;-79
2022/10/31 08:19:23;;;;;;;10.63;9.53;;;;;;;;;;5056384;28;20494;-79
2022/10/31 08:21:54;;;;;;;16.33;10.70;;;;;;;;;;5046945;28;20609;-79
2022/10/31 08:24:20;;;;;;;15.40;10.60;;;;;;;;;;5041723;28;20446;-79
2022/10/31 08:26:46;;;;;;;16.97;10.50;;;;;;;;;;5046529;28;20433;-80
2022/10/31 08:29:12;;;;;;;15.77;10.23;;;;;;;;;;5045341;28;20445;-79
2022/10/31 08:31:39;;;;;;;14.90;10.07;;;;;;;;;;5046186;28;20518;-81
2022/10/31 08:34:05;;;;;;;12.00;9.30;;;;;;;;;;5044557;28;20442;-80
2022/10/31 08:36:31;;;;;;;18.73;11.20;;;;;;;;;;5046363;28;20460;-80
2022/10/31 08:38:57;;;;;;;10.53;9.13;;;;;;;;;;5063757;28;20762;-79
2022/10/31 08:41:22;;;;;;;11.20;9.93;;;;;;;;;;5047119;28;20426;-80
2022/10/31 08:43:48;;;;;;;11.63;10.20;;;;;;;;;;5044055;28;20524;-79
2022/10/31 08:46:15;;;;;;;16.10;11.90;;;;;;;;;;5047006;28;20463;-78
2022/10/31 08:48:41;;;;;;;11.73;9.70;;;;;;;;;;5043985;28;20433;-79
2022/10/31 08:51:07;;;;;;;12.60;11.27;;;;;;;;;;4695075;28;9999853;-80
2022/10/31 08:53:33;;;;;;;13.77;11.13;;;;;;;;;;5051182;28;20202;-79
2022/10/31 08:55:59;;;;;;;13.53;11.10;;;;;;;;;;5029671;28;20873;-80
2022/10/31 08:58:25;;;;;;;12.50;11.20;;;;;;;;;;5050937;28;20421;-78
2022/10/31 09:00:53;;;;;;;18.30;10.80;;;;;;;;;;5045953;28;20440;-79
2022/10/31 09:03:25;;;;;;;16.63;12.30;;;;;;;;;;5050806;28;20420;-80
2022/10/31 09:05:55;;;;;;;15.43;11.30;;;;;;;;;;5045077;28;20493;-80
2022/10/31 09:08:21;;;;;;;16.33;12.50;;;;;;;;;;5051076;28;20417;-78
2022/10/31 09:10:47;;;;;;;15.20;12.87;;;;;;;;;;5041587;28;20460;-79
2022/10/31 09:13:14;;;;;;;18.57;16.73;;;;;;;;;;5045387;28;20480;-80
2022/10/31 09:15:41;;;;;;;16.60;12.73;;;;;;;;;;5061584;28;20873;-76
2022/10/31 09:18:07;;;;;;;15.17;11.97;;;;;;;;;;5047269;28;20439;-79
2022/10/31 09:20:34;;;;;;;15.90;14.30;;;;;;;;;;5065646;28;20473;-80
2022/10/31 09:23:07;;;;;;;20.03;14.20;;;;;;;;;;5051832;28;20435;-80
2022/10/31 09:25:35;;;;;;;17.13;13.93;;;;;;;;;;5061097;28;20405;-79
2022/10/31 09:28:01;;;;;;;15.47;13.83;;;;;;;;;;5063420;28;20436;-79
2022/10/31 09:30:28;;;;;;;19.30;14.83;;;;;;;;;;5065608;28;20805;-80
2022/10/31 09:32:58;;;;;;;18.00;13.40;;;;;;;;;;5043572;28;20661;-80
2022/10/31 09:35:25;;;;;;;23.50;15.73;;;;;;;;;;5055156;28;20466;-80
2022/10/31 09:38:01;;;;;;;17.90;14.47;;;;;;;;;;5029881;28;20451;-79
2022/10/31 09:40:33;;;;;;;21.17;15.47;;;;;;;;;;5046421;28;20437;-79
2022/10/31 09:43:04;;;;;;;18.10;15.73;;;;;;;;;;5063253;28;20464;-79
2022/10/31 09:45:49;;;;;;;34.77;21.20;;;;;;;;;;5065963;28;20419;-80
2022/10/31 09:48:37;;;;;;;25.93;19.00;;;;;;;;;;5046038;28;20971;-80
2022/10/31 09:51:14;;;;;;;22.33;17.63;;;;;;;;;;5046156;28;20422;-80
2022/10/31 09:53:52;;;;;;;21.67;17.63;;;;;;;;;;5054493;28;20432;-80
2022/10/31 09:56:22;;;;;;;19.47;15.90;;;;;;;;;;4708788;28;10001134;-79
2022/10/31 09:58:53;;;;;;;23.00;18.10;;;;;;;;;;5059065;28;20417;-80
2022/10/31 10:01:38;;;;;;;24.40;15.77;;;;;;;;;;5057592;28;20420;-80
2022/10/31 10:04:19;;;;;;;23.47;17.00;;;;;;;;;;5069066;28;20492;-79
2022/10/31 10:06:47;;;;;;;26.83;19.00;;;;;;;;;;5068886;28;20447;-81
2022/10/31 10:09:13;;;;;;;28.70;17.97;;;;;;;;;;5072338;28;20436;-81
2022/10/31 10:11:42;;;;;;;21.53;16.10;;;;;;;;;;5083340;28;20568;-81
2022/10/31 10:14:14;;;;;;;19.37;17.13;;;;;;;;;;5066529;28;20460;-82
2022/10/31 10:16:52;;;;;;;20.83;17.23;;;;;;;;;;5057303;28;20488;-80
2022/10/31 10:19:33;;;;;;;33.83;30.27;;;;;;;;;;5051217;28;20461;-79
2022/10/31 10:22:05;;;;;;;18.23;15.70;;;;;;;;;;5063454;28;20524;-80
2022/10/31 10:24:38;;;;;;;18.40;16.23;;;;;;;;;;5066064;28;20477;-80
2022/10/31 10:27:21;;;;;;;17.50;15.07;;;;;;;;;;5060826;28;20432;-81
2022/10/31 10:30:10;;;;;;;19.23;15.80;;;;;;;;;;5047728;28;20430;-79
2022/10/31 10:32:41;;;;;;;20.60;15.70;;;;;;;;;;5039816;28;20489;-80
2022/10/31 10:35:16;;;;;;;24.03;15.83;;;;;;;;;;5050020;28;20457;-77
2022/10/31 10:37:44;;;;;;;21.77;16.30;;;;;;;;;;5058625;28;21035;-77
2022/10/31 10:40:18;;;;;;;20.87;16.07;;;;;;;;;;5065769;28;20515;-80
2022/10/31 10:43:19;;;;;;;20.43;16.70;;;;;;;;;;5061218;28;21182;-80
2022/10/31 10:48:39;;;;;;;22.17;16.90;;;;;;;;;;5047197;28;20413;-80
2022/10/31 10:51:07;;;;;;;17.53;15.80;;;;;;;;;;5046527;28;20433;-82
2022/10/31 10:53:59;;;;;;;18.87;16.70;;;;;;;;;;5068307;28;20999;-81
2022/10/31 10:56:45;;;;;;;21.73;16.60;;;;;;;;;;5064864;28;20471;-78
2022/10/31 10:59:13;;;;;;;25.03;17.30;;;;;;;;;;5041543;28;20528;-79
2022/10/31 11:01:41;;;;;;;20.63;16.93;;;;;;;;;;5048368;28;20464;-80
2022/10/31 11:04:22;;;;;;;23.53;17.27;;;;;;;;;;5067682;28;20800;-79
2022/10/31 11:06:57;;;;;;;23.90;18.40;;;;;;;;;;5071064;28;20557;-79
2022/10/31 11:09:23;;;;;;;25.07;17.30;;;;;;;;;;5049077;28;20409;-80
2022/10/31 11:11:49;;;;;;;27.00;20.43;;;;;;;;;;5067024;28;20496;-79
2022/10/31 11:14:17;;;;;;;24.80;18.37;;;;;;;;;;5046612;28;20475;-79
2022/10/31 11:16:45;;;;;;;26.43;20.07;;;;;;;;;;5058850;28;20801;-78
2022/10/31 11:19:17;;;;;;;21.30;16.77;;;;;;;;;;4708899;28;9999811;-80
2022/10/31 11:21:45;;;;;;;24.30;17.80;;;;;;;;;;5058660;28;20429;-81
2022/10/31 11:24:11;;;;;;;22.40;16.63;;;;;;;;;;5057598;28;20520;-81
2022/10/31 11:26:40;;;;;;;22.33;16.10;;;;;;;;;;5062981;28;20511;-80
2022/10/31 11:29:13;;;;;;;23.20;17.60;;;;;;;;;;5047021;28;20558;-80
2022/10/31 11:31:40;;;;;;;24.00;15.50;;;;;;;;;;5061555;28;20536;-78
2022/10/31 11:34:07;;;;;;;21.80;16.07;;;;;;;;;;5061016;28;20636;-79
2022/10/31 11:36:36;;;;;;;22.87;15.60;;;;;;;;;;5047761;28;20920;-79
2022/10/31 11:39:03;;;;;;;22.03;16.83;;;;;;;;;;5061872;28;20531;-78
2022/10/31 11:41:31;;;;;;;23.00;16.20;;;;;;;;;;5058377;28;20439;-80
2022/10/31 11:44:05;;;;;;;23.20;16.00;;;;;;;;;;5066534;28;20433;-79
2022/10/31 11:46:37;;;;;;;23.80;15.50;;;;;;;;;;5061057;28;20503;-79
2022/10/31 11:49:04;;;;;;;19.00;14.10;;;;;;;;;;5047133;28;20475;-79
2022/10/31 11:51:32;;;;;;;16.30;14.13;;;;;;;;;;5040894;28;20465;-79
2022/10/31 11:53:58;;;;;;;15.53;13.07;;;;;;;;;;5065833;28;20522;-79
2022/10/31 11:56:25;;;;;;;18.33;14.47;;;;;;;;;;5065800;28;20488;-79
2022/10/31 11:59:04;;;;;;;21.37;14.07;;;;;;;;;;5061030;28;20461;-80
2022/10/31 12:01:31;;;;;;;14.50;13.10;;;;;;;;;;5050505;28;20425;-79
2022/10/31 12:04:13;;;;;;;13.80;12.27;;;;;;;;;;5066257;28;20423;-80
2022/10/31 12:06:40;;;;;;;14.07;12.67;;;;;;;;;;5065078;28;20444;-84
2022/10/31 12:09:27;;;;;;;19.80;13.27;;;;;;;;;;5067252;28;20806;-80
2022/10/31 12:12:08;;;;;;;19.00;12.43;;;;;;;;;;5051656;28;20476;-80
2022/10/31 12:14:44;;;;;;;14.90;12.67;;;;;;;;;;5058775;28;20446;-80
2022/10/31 12:17:19;;;;;;;20.00;12.67;;;;;;;;;;5058582;28;20436;-79
2022/10/31 12:19:45;;;;;;;16.00;13.00;;;;;;;;;;5047391;28;20474;-80
2022/10/31 12:22:11;;;;;;;15.63;12.70;;;;;;;;;;5053212;28;20823;-79
2022/10/31 12:24:56;;;;;;;17.20;11.90;;;;;;;;;;5046217;28;20915;-79
2022/10/31 12:27:51;;;;;;;19.20;14.20;;;;;;;;;;5042937;28;20436;-78
2022/10/31 12:30:21;;;;;;;20.43;13.60;;;;;;;;;;4973020;28;20448;-78
2022/10/31 12:33:07;;;;;;;16.53;12.20;;;;;;;;;;5064306;28;20786;-78
2022/10/31 12:35:41;;;;;;;20.13;11.33;;;;;;;;;;5027522;28;20433;-76
2022/10/31 12:38:21;;;;;;;19.40;13.97;;;;;;;;;;5060844;28;20424;-77
2022/10/31 12:40:47;;;;;;;13.17;11.80;;;;;;;;;;5045361;28;20421;-77
2022/10/31 12:43:16;;;;;;;16.97;11.97;;;;;;;;;;5045729;28;20791;-80
2022/10/31 12:45:48;;;;;;;13.00;10.93;;;;;;;;;;5058047;28;20898;-82
2022/10/31 12:48:17;;;;;;;15.10;11.73;;;;;;;;;;5063067;28;20439;-81
2022/10/31 12:51:19;;;;;;;14.03;11.40;;;;;;;;;;5046262;28;20417;-80
2022/10/31 12:53:45;;;;;;;17.57;15.83;;;;;;;;;;5003550;28;20441;-79
2022/10/31 12:56:29;;;;;;;16.53;10.40;;;;;;;;;;5039447;28;20440;-80
2022/10/31 12:59:04;;;;;;;15.97;11.17;;;;;;;;;;5065738;28;20899;-81
2022/10/31 13:01:34;;;;;;;24.83;11.57;;;;;;;;;;5044234;28;20457;-79
2022/10/31 13:04:03;;;;;;;12.70;10.73;;;;;;;;;;5060696;28;20424;-81
2022/10/31 13:06:33;;;;;;;12.97;10.37;;;;;;;;;;5045120;28;20943;-81
2022/10/31 13:09:06;;;;;;;12.07;9.53;;;;;;;;;;5060544;28;20492;-80
2022/10/31 13:11:37;;;;;;;12.47;9.07;;;;;;;;;;5063903;28;20465;-80
2022/10/31 13:14:18;;;;;;;13.53;10.80;;;;;;;;;;5060998;28;20526;-79
2022/10/31 13:16:47;;;;;;;11.20;10.00;;;;;;;;;;5055866;28;20444;-80
2022/10/31 13:19:16;;;;;;;10.40;9.33;;;;;;;;;;5065692;28;20405;-78
2022/10/31 13:21:49;;;;;;;11.70;10.60;;;;;;;;;;5054503;28;20918;-79
2022/10/31 13:24:19;;;;;;;12.73;10.50;;;;;;;;;;5046573;28;20427;-78
2022/10/31 13:26:48;;;;;;;13.80;10.27;;;;;;;;;;5045514;28;20410;-78
2022/10/31 13:29:33;;;;;;;10.97;8.13;;;;;;;;;;5064956;28;20421;-78
2022/10/31 13:31:59;;;;;;;10.30;8.30;;;;;;;;;;5065195;28;20460;-78
2022/10/31 13:34:31;;;;;;;5.30;4.90;;;;;;;;;;5044274;28;20436;-78
2022/10/31 13:37:21;;;;;;;9.73;4.90;;;;;;;;;;5050102;28;20408;-79
2022/10/31 13:39:50;;;;;;;7.30;6.33;;;;;;;;;;5043397;28;20438;-77
2022/10/31 13:42:19;;;;;;;6.03;5.23;;;;;;;;;;5045332;28;20413;-79
2022/10/31 13:44:45;;;;;;;10.20;6.07;;;;;;;;;;5050015;28;20931;-77
2022/10/31 13:47:28;;;;;;;6.80;4.83;;;;;;;;;;5061331;28;20415;-78
2022/10/31 13:50:05;;;;;;;7.00;5.47;;;;;;;;;;5056671;28;20432;-78
2022/10/31 13:52:31;;;;;;;7.90;5.23;;;;;;;;;;5064839;28;20460;-78
2022/10/31 13:54:57;;;;;;;6.50;6.00;;;;;;;;;;5057357;28;20425;-78
2022/10/31 13:57:32;;;;;;;6.63;4.83;;;;;;;;;;5064747;28;20701;-79
2022/10/31 14:00:00;;;;;;;5.97;4.67;;;;;;;;;;5052252;28;20425;-77
2022/10/31 14:02:28;;;;;;;5.23;4.83;;;;;;;;;;5063086;28;20405;-77
2022/10/31 14:04:57;;;;;;;7.93;4.40;;;;;;;;;;5057235;28;20447;-78
2022/10/31 14:07:23;;;;;;;5.73;4.90;;;;;;;;;;5064895;28;20412;-78
2022/10/31 14:09:55;;;;;;;7.00;4.67;;;;;;;;;;5055852;28;20437;-78
2022/10/31 14:12:30;;;;;;;6.73;4.73;;;;;;;;;;5064183;28;20460;-78
2022/10/31 14:14:59;;;;;;;6.67;4.23;;;;;;;;;;5045372;28;20886;-77
2022/10/31 14:17:27;;;;;;;5.47;4.93;;;;;;;;;;5064885;28;20502;-78
2022/10/31 14:20:00;;;;;;;11.27;5.13;;;;;;;;;;5051925;28;20453;-78
2022/10/31 14:22:30;;;;;;;7.53;5.27;;;;;;;;;;5063090;28;20439;-78
2022/10/31 14:24:56;;;;;;;5.80;5.27;;;;;;;;;;5062753;28;20432;-78
2022/10/31 14:27:29;;;;;;;11.67;6.20;;;;;;;;;;5064657;28;20404;-78
2022/10/31 14:29:55;;;;;;;9.13;5.05;;;;;;;;;;4347437;28;10000725;-78
2022/10/31 14:32:22;;;;;;;8.00;4.17;;;;;;;;;;5061598;28;20244;-78
2022/10/31 14:34:58;;;;;;;4.90;4.50;;;;;;;;;;5057160;28;20439;-80
2022/10/31 14:37:43;;;;;;;5.30;4.70;;;;;;;;;;5056162;28;20432;-81
2022/10/31 14:40:29;;;;;;;6.63;4.30;;;;;;;;;;5049938;28;20942;-80